Time;durP1;ratioP1;P1;durP2;ratioP2;P2;SDS_P1;SDS_P2;PMS_P1;PMS_P2;Temp;Humidity;BMP_temperature;BMP_pressure;BME280_temperature;BME280_humidity;BME280_pressure;Samples;Min_cycle;Max_cycle;Signal;HPM_P1;HPM_P2
2022/05/05 15:46:34;;;;;;;3.38;1.75;;;;;;;20.09;45.17;64075.53;5119159;27;20851;-75
2022/05/05 15:49:02;;;;;;;1.80;1.70;;;;;;;20.31;44.12;64098.50;5118509;28;20220;-75
2022/05/05 15:51:34;;;;;;;1.65;1.55;;;;;;;20.40;42.62;64105.31;5120707;28;20506;-74
2022/05/05 15:54:01;;;;;;;2.10;1.55;;;;;;;20.20;43.73;64082.38;5105709;28;20534;-74
2022/05/05 15:56:28;;;;;;;1.58;1.48;;;;;;;20.14;44.13;64075.59;5101114;28;20206;-74
2022/05/05 15:58:55;;;;;;;6.07;2.10;;;;;;;20.20;43.97;64084.44;5111659;28;20269;-75
2022/05/05 16:01:23;;;;;;;2.50;1.58;;;;;;;20.65;42.58;64136.59;5114732;28;20195;-75
2022/05/05 16:03:51;;;;;;;3.08;1.58;;;;;;;21.12;41.48;64185.16;5100312;28;20212;-75
2022/05/05 16:06:18;;;;;;;1.70;1.60;;;;;;;21.26;41.16;64199.78;5111678;28;20238;-75
2022/05/05 16:08:45;;;;;;;2.90;1.95;;;;;;;21.04;42.07;64174.19;5119499;28;20259;-75
2022/05/05 16:11:12;;;;;;;1.80;1.70;;;;;;;20.86;43.08;64158.50;5120818;28;20260;-75
2022/05/05 16:13:39;;;;;;;1.80;1.70;;;;;;;21.08;42.40;64175.78;5120604;28;20206;-74
2022/05/05 16:16:06;;;;;;;1.80;1.70;;;;;;;21.04;41.91;64172.13;5103533;28;20199;-75
2022/05/05 16:18:33;;;;;;;2.10;2.00;;;;;;;20.99;42.31;64166.91;5106494;28;20474;-74
2022/05/05 16:21:02;;;;;;;1.88;1.70;;;;;;;20.79;42.89;64148.09;5116321;28;20510;-74
2022/05/05 16:23:30;;;;;;;3.28;2.10;;;;;;;20.68;42.74;64139.72;5114147;28;20214;-74
2022/05/05 16:31:26;;;;;;;2.42;2.15;;;;;;;20.89;44.29;64155.94;5103281;28;20194;-75
2022/05/05 16:33:53;;;;;;;6.82;2.28;;;;;;;20.83;45.47;64150.19;5099909;28;20263;-75
2022/05/05 16:36:21;;;;;;;2.13;2.03;;;;;;;20.64;43.97;64133.47;5110957;28;20266;-75
2022/05/05 16:38:48;;;;;;;2.47;1.83;;;;;;;20.37;45.14;64102.19;5106131;28;20199;-75
2022/05/05 16:41:17;;;;;;;1.85;1.75;;;;;;;20.17;43.58;64081.31;5107122;28;20211;-76
2022/05/05 16:43:46;;;;;;;2.20;2.10;;;;;;;19.94;44.22;64059.88;5098488;28;20202;-76
2022/05/05 16:46:13;;;;;;;2.13;1.90;;;;;;;19.73;44.81;64037.97;5101521;28;20226;-76
2022/05/05 16:48:40;;;;;;;2.13;2.03;;;;;;;19.57;47.11;64021.28;5111282;28;20219;-75
2022/05/05 16:51:07;;;;;;;2.42;2.33;;;;;;;19.44;47.24;64005.66;5107547;28;20202;-75
2022/05/05 16:53:35;;;;;;;2.75;2.55;;;;;;;19.12;48.64;63974.88;5106255;28;20300;-75
2022/05/05 16:56:02;;;;;;;1.48;1.45;;;;;;;18.82;48.85;63941.00;5103419;28;20253;-76
2022/05/05 16:58:29;;;;;;;1.90;1.63;;;;;;;18.58;48.95;63921.69;5106115;28;20262;-75
2022/05/05 17:00:56;;;;;;;2.50;2.30;;;;;;;18.32;50.00;63892.00;5098727;28;20215;-76
2022/05/05 17:03:23;;;;;;;2.03;1.92;;;;;;;18.06;50.14;63865.41;5087608;28;20215;-75
2022/05/05 17:05:50;;;;;;;2.15;1.98;;;;;;;17.83;50.96;63841.47;5100428;28;20273;-75
2022/05/05 17:08:19;;;;;;;1.92;1.85;;;;;;;17.58;54.38;63810.28;5095158;28;20307;-75
2022/05/05 17:10:47;;;;;;;1.77;1.77;;;;;;;17.10;56.82;63765.94;5091711;28;20228;-75
2022/05/05 17:13:14;;;;;;;1.85;1.85;;;;;;;17.00;57.96;63755.53;5101023;28;20192;-75
2022/05/05 17:15:42;;;;;;;1.83;1.73;;;;;;;16.73;56.99;63724.34;5097929;28;20230;-75
2022/05/05 17:18:08;;;;;;;1.90;1.80;;;;;;;16.50;57.58;63705.56;5088572;28;20206;-77
2022/05/05 17:20:36;;;;;;;2.50;1.70;;;;;;;16.31;58.48;63683.22;5087607;28;20212;-76
2022/05/05 17:23:02;;;;;;;1.90;1.80;;;;;;;16.13;60.08;63665.00;5085707;28;20262;-75
2022/05/05 17:25:30;;;;;;;2.67;2.47;;;;;;;16.05;60.33;63661.81;5085251;28;20269;-76
2022/05/05 17:27:58;;;;;;;2.80;2.42;;;;;;;15.81;61.30;63629.69;5098877;28;20206;-76
2022/05/05 17:30:25;;;;;;;2.28;2.00;;;;;;;15.61;62.56;63614.03;5104109;28;20219;-75
2022/05/05 17:32:53;;;;;;;3.60;2.00;;;;;;;15.40;63.01;63589.63;5106049;28;20256;-75
2022/05/05 17:35:23;;;;;;;1.80;1.70;;;;;;;15.16;63.97;63562.09;5102906;28;20235;-76
2022/05/05 17:37:49;;;;;;;1.67;1.65;;;;;;;15.10;63.60;63555.34;5083552;28;20219;-76
2022/05/05 17:40:17;;;;;;;1.58;1.48;;;;;;;14.96;64.04;63541.34;5085866;28;20253;-75
2022/05/05 17:42:44;;;;;;;3.22;2.03;;;;;;;14.76;65.21;63520.53;5085099;28;20199;-76
2022/05/05 17:50:43;;;;;;;2.38;1.95;;;;;;;14.46;67.54;63489.38;5093272;28;20230;-76
2022/05/05 17:53:10;;;;;;;1.50;1.50;;;;;;;14.37;67.55;63480.03;5101129;28;20194;-75
2022/05/05 17:55:37;;;;;;;1.90;1.80;;;;;;;14.27;67.89;63470.16;5104342;28;20404;-75
2022/05/05 17:58:05;;;;;;;2.03;1.88;;;;;;;14.20;68.13;63460.34;5093766;28;20210;-75
2022/05/05 18:00:35;;;;;;;5.45;1.90;;;;;;;14.18;67.90;63465.41;5099578;28;20228;-77
2022/05/05 18:03:03;;;;;;;5.53;1.80;;;;;;;14.16;67.98;63461.28;5087354;28;20522;-76
2022/05/05 18:05:30;;;;;;;1.55;1.48;;;;;;;14.13;68.67;63455.09;5087237;28;20236;-75
2022/05/05 18:07:58;;;;;;;1.60;1.50;;;;;;;14.12;68.81;63451.50;5093103;28;20484;-76
2022/05/05 18:10:25;;;;;;;2.22;2.05;;;;;;;14.02;69.32;63443.69;5100080;28;20220;-75
2022/05/05 18:12:55;;;;;;;1.75;1.65;;;;;;;14.03;67.84;63450.34;5102771;28;20207;-74
2022/05/05 18:15:22;;;;;;;2.30;2.15;;;;;;;13.97;68.70;63439.00;5106506;28;20227;-75
2022/05/05 18:17:50;;;;;;;2.58;1.52;;;;;;;14.08;68.91;63449.91;5099508;28;20196;-76
2022/05/05 18:20:18;;;;;;;2.05;1.95;;;;;;;13.96;72.02;63434.91;5099837;28;20224;-75
2022/05/05 18:22:45;;;;;;;2.33;2.15;;;;;;;13.93;69.47;63434.84;5105102;28;20211;-75
2022/05/05 18:25:12;;;;;;;2.30;2.20;;;;;;;13.84;69.36;63428.59;5091702;28;20291;-75
2022/05/05 18:27:40;;;;;;;1.63;1.58;;;;;;;13.80;69.02;63427.00;5092438;28;20247;-75
2022/05/05 18:30:09;;;;;;;2.10;1.90;;;;;;;13.79;69.32;63420.84;5105819;28;20242;-74
2022/05/05 18:32:39;;;;;;;2.22;2.13;;;;;;;13.79;69.44;63418.28;5091695;28;20201;-75
2022/05/05 18:35:09;;;;;;;3.22;1.90;;;;;;;13.82;70.40;63423.44;5103829;28;20433;-75
2022/05/05 18:37:36;;;;;;;2.00;1.90;;;;;;;13.90;68.89;63426.63;5097169;28;20197;-75
2022/05/05 18:40:04;;;;;;;2.63;2.35;;;;;;;13.87;70.95;63433.75;5092935;28;20223;-76
2022/05/05 18:42:31;;;;;;;3.35;2.08;;;;;;;13.83;71.35;63427.03;5094222;28;20188;-75
2022/05/05 18:44:59;;;;;;;2.72;1.85;;;;;;;13.84;70.94;63426.03;5089443;28;20227;-74
2022/05/05 18:47:26;;;;;;;2.38;2.17;;;;;;;13.85;70.02;63431.66;5102484;28;20233;-76
2022/05/05 18:49:52;;;;;;;1.90;1.80;;;;;;;13.78;70.36;63421.84;5102682;28;20253;-74
2022/05/05 18:52:21;;;;;;;3.90;1.88;;;;;;;13.77;72.27;63423.88;5095767;28;20267;-75
2022/05/05 18:54:49;;;;;;;3.08;1.90;;;;;;;13.74;72.49;63415.66;5093733;28;20227;-74
2022/05/05 18:57:16;;;;;;;2.15;1.95;;;;;;;13.74;72.92;63413.09;5103539;28;20203;-75
2022/05/05 18:59:44;;;;;;;2.30;2.15;;;;;;;13.80;72.21;63427.00;5098750;28;20227;-76
2022/05/05 19:02:11;;;;;;;1.70;1.70;;;;;;;13.78;71.85;63421.84;5090392;28;20194;-74
2022/05/05 19:04:41;;;;;;;2.25;2.15;;;;;;;13.83;71.40;63421.91;5088776;28;20409;-75
2022/05/05 19:07:09;;;;;;;2.03;1.90;;;;;;;13.77;71.82;63423.88;5095006;28;20277;-75
2022/05/05 19:09:37;;;;;;;2.83;2.63;;;;;;;13.76;71.66;63420.28;5087487;28;20235;-76
2022/05/05 19:12:05;;;;;;;2.95;2.17;;;;;;;13.73;72.67;63414.63;5104083;28;20224;-75
2022/05/05 19:14:32;;;;;;;2.53;2.33;;;;;;;13.74;72.67;63415.66;5095893;28;20456;-74
2022/05/05 19:16:59;;;;;;;2.40;2.30;;;;;;;13.75;72.53;63411.56;5098041;28;20203;-75
2022/05/05 19:19:26;;;;;;;2.22;2.13;;;;;;;13.80;71.96;63418.81;5091479;28;20282;-75
2022/05/05 19:21:54;;;;;;;2.80;1.88;;;;;;;13.76;71.90;63417.72;5088882;28;20504;-76
2022/05/05 19:24:21;;;;;;;2.28;2.17;;;;;;;13.74;73.55;63410.53;5096058;28;20233;-75
2022/05/05 19:26:50;;;;;;;2.97;2.78;;;;;;;13.77;73.32;63418.75;5085146;28;20300;-74
2022/05/05 19:29:17;;;;;;;4.00;3.60;;;;;;;13.80;73.03;63426.47;5088966;28;20287;-75
2022/05/05 19:31:44;;;;;;;3.50;3.30;;;;;;;13.77;73.48;63415.69;5095713;28;21688;-74
2022/05/05 19:34:12;;;;;;;3.55;3.25;;;;;;;13.73;73.00;63416.66;5103685;28;20235;-75
2022/05/05 19:36:39;;;;;;;2.40;2.30;;;;;;;13.74;73.06;63415.13;5102113;28;20211;-75
2022/05/05 19:39:06;;;;;;;2.15;2.05;;;;;;;13.66;73.69;63409.38;5103546;28;20254;-75
2022/05/05 19:41:35;;;;;;;2.40;2.30;;;;;;;13.71;74.03;63414.56;5096021;28;20414;-75
2022/05/05 19:44:04;;;;;;;2.90;2.78;;;;;;;13.72;74.05;63413.56;5097442;28;20224;-75
2022/05/05 19:46:31;;;;;;;2.40;2.20;;;;;;;13.65;74.01;63406.31;5098752;28;20227;-74
2022/05/05 19:48:58;;;;;;;2.50;2.30;;;;;;;13.72;74.00;63418.16;5086434;28;20209;-74
2022/05/05 19:51:25;;;;;;;2.53;2.42;;;;;;;13.75;74.72;63414.13;5091883;28;20407;-75
2022/05/05 19:53:55;;;;;;;2.70;2.50;;;;;;;13.73;73.12;63414.09;5086838;28;20570;-76
2022/05/05 20:01:52;;;;;;;2.42;2.15;;;;;;;13.64;75.51;63407.31;5107725;28;20527;-76
2022/05/05 20:04:19;;;;;;;2.42;2.33;;;;;;;13.58;75.70;63401.59;5102144;28;20239;-75
2022/05/05 20:09:30;;;;;;;3.10;2.90;;;;;;;13.63;75.70;63404.22;5098854;28;20269;-76
2022/05/05 20:11:56;;;;;;;2.53;2.42;;;;;;;13.66;76.02;63409.38;5102642;28;20196;-74
2022/05/05 20:14:25;;;;;;;2.97;2.65;;;;;;;13.63;76.69;63406.78;5101201;28;20405;-76
2022/05/05 20:16:52;;;;;;;3.15;2.85;;;;;;;13.65;76.26;63405.81;5092833;28;20200;-76
2022/05/05 20:19:19;;;;;;;2.40;2.30;;;;;;;13.64;76.17;63407.31;5101048;28;20260;-76
2022/05/05 20:21:45;;;;;;;2.80;2.63;;;;;;;13.60;76.58;63401.13;5103294;28;20217;-75
2022/05/05 20:24:12;;;;;;;2.92;2.72;;;;;;;13.54;77.43;63400.03;5096696;28;20457;-75
2022/05/05 20:26:40;;;;;;;3.40;3.10;;;;;;;13.54;76.52;63402.56;5083514;28;20258;-75
2022/05/05 20:29:08;;;;;;;3.30;3.03;;;;;;;13.46;77.58;63386.59;5094052;28;20227;-74
2022/05/05 20:31:38;;;;;;;2.80;2.60;;;;;;;13.46;77.24;63388.63;5104618;28;20259;-76
2022/05/05 20:34:05;;;;;;;3.88;2.70;;;;;;;13.45;77.02;63390.16;5103426;28;20223;-75
2022/05/05 20:36:33;;;;;;;2.80;2.50;;;;;;;13.46;76.85;63389.16;5101150;28;20200;-74
2022/05/05 20:39:00;;;;;;;6.50;3.60;;;;;;;13.37;82.23;63377.25;5086876;28;20525;-76
2022/05/05 20:41:27;;;;;;;4.57;3.63;;;;;;;13.16;84.34;63358.03;5088822;28;20243;-75
2022/05/05 20:43:54;;;;;;;4.60;4.20;;;;;;;13.07;84.87;63348.16;5101825;28;20235;-75
2022/05/05 20:46:21;;;;;;;5.68;4.47;;;;;;;12.97;85.45;63333.19;5105753;28;20259;-76
2022/05/05 20:48:49;;;;;;;4.40;3.95;;;;;;;12.96;86.60;63334.69;5106954;28;20263;-75
2022/05/05 20:51:16;;;;;;;5.10;3.78;;;;;;;12.88;86.92;63328.44;5093683;28;20523;-75
2022/05/05 20:53:43;;;;;;;4.20;3.90;;;;;;;12.77;87.53;63317.53;5098971;28;20378;-76
2022/05/05 20:56:10;;;;;;;6.30;4.00;;;;;;;12.72;87.94;63310.34;5093394;28;20223;-76
2022/05/05 20:58:38;;;;;;;4.50;4.10;;;;;;;12.44;90.88;63286.41;5087297;28;20223;-75
2022/05/05 21:01:07;;;;;;;4.30;3.88;;;;;;;12.30;91.24;63268.81;5086554;28;20373;-75
2022/05/05 21:03:35;;;;;;;4.70;4.30;;;;;;;12.35;91.52;63274.00;5097550;28;20203;-74
2022/05/05 21:06:04;;;;;;;5.05;4.03;;;;;;;12.32;91.32;63263.75;5097833;28;20228;-74
2022/05/05 21:08:32;;;;;;;5.45;5.00;;;;;;;12.34;91.87;63270.41;5089481;28;20226;-74
2022/05/05 21:10:59;;;;;;;5.53;5.07;;;;;;;12.34;92.03;63268.38;5102598;28;20278;-75
2022/05/05 21:13:26;;;;;;;4.18;3.88;;;;;;;12.32;91.64;63268.84;5102564;28;20204;-75
2022/05/05 21:15:53;;;;;;;3.88;3.60;;;;;;;12.29;91.54;63265.22;5091062;28;20266;-74
2022/05/05 21:18:20;;;;;;;4.75;3.47;;;;;;;12.27;91.78;63266.22;5104592;28;20212;-74
2022/05/05 21:26:17;;;;;;;4.53;3.08;;;;;;;12.45;90.21;63281.81;5090683;28;20231;-74
2022/05/05 21:28:44;;;;;;;3.22;3.05;;;;;;;12.34;90.58;63270.94;5086328;28;20201;-74
2022/05/05 21:31:11;;;;;;;3.13;2.92;;;;;;;12.26;91.86;63265.19;5088405;28;20390;-73
2022/05/05 21:33:38;;;;;;;3.53;3.33;;;;;;;12.25;92.18;63261.09;5087699;28;20197;-74
2022/05/05 21:36:06;;;;;;;3.35;3.05;;;;;;;12.18;91.38;63254.34;5085376;28;20203;-75
2022/05/05 21:38:34;;;;;;;2.78;2.67;;;;;;;12.19;91.60;63255.38;5093802;28;20266;-73
2022/05/05 21:41:02;;;;;;;3.28;3.10;;;;;;;12.13;92.54;63251.22;5105748;28;20480;-74
2022/05/05 21:43:32;;;;;;;3.40;3.20;;;;;;;12.08;93.05;63246.53;5096438;28;20198;-74
2022/05/05 21:46:02;;;;;;;6.97;3.65;;;;;;;12.10;93.49;63248.59;5103232;28;20220;-75
2022/05/05 21:48:30;;;;;;;3.45;3.15;;;;;;;12.06;94.17;63241.41;5096662;28;20255;-74
2022/05/05 21:50:58;;;;;;;4.00;3.58;;;;;;;12.01;94.89;63239.28;5093513;28;20576;-74
2022/05/05 21:53:25;;;;;;;3.30;3.03;;;;;;;12.01;94.94;63236.72;5099933;28;20451;-74
2022/05/05 21:55:53;;;;;;;3.33;3.13;;;;;;;11.98;95.21;63231.06;5105501;28;20368;-74
2022/05/05 21:58:20;;;;;;;3.20;2.90;;;;;;;11.94;96.81;63229.47;5097205;28;20267;-75
2022/05/05 22:00:48;;;;;;;3.30;3.00;;;;;;;11.87;97.59;63221.72;5099677;28;20216;-74
2022/05/05 22:03:17;;;;;;;3.10;2.92;;;;;;;11.77;98.22;63211.84;5102170;28;20381;-74
2022/05/05 22:05:44;;;;;;;2.90;2.80;;;;;;;11.75;98.29;63209.81;5097456;28;20212;-74
2022/05/05 22:08:13;;;;;;;5.97;3.38;;;;;;;11.76;97.73;63210.81;5098135;28;20227;-74
2022/05/05 22:10:40;;;;;;;3.38;3.17;;;;;;;11.70;98.24;63202.06;5090096;28;20256;-74
2022/05/05 22:13:08;;;;;;;5.70;3.50;;;;;;;11.73;98.43;63204.66;5104581;28;20236;-74
2022/05/05 22:15:36;;;;;;;3.38;3.15;;;;;;;11.65;99.42;63199.41;5094688;28;20223;-75
2022/05/05 22:18:03;;;;;;;4.65;3.90;;;;;;;11.51;100.00;63190.53;5084654;28;20200;-75
2022/05/05 22:20:31;;;;;;;3.70;3.50;;;;;;;11.46;100.00;63179.72;5095125;28;20232;-74
2022/05/05 22:22:58;;;;;;;3.40;3.13;;;;;;;11.44;100.00;63175.63;5084558;28;20211;-74
2022/05/05 22:25:25;;;;;;;6.00;3.75;;;;;;;11.38;100.00;63174.00;5089013;28;20616;-73
2022/05/05 22:27:52;;;;;;;3.90;3.47;;;;;;;11.35;100.00;63170.88;5086908;28;20224;-74
2022/05/05 22:30:22;;;;;;;3.72;3.53;;;;;;;11.32;100.00;63162.69;5098333;28;20216;-74
2022/05/05 22:32:49;;;;;;;3.83;3.63;;;;;;;11.32;100.00;63162.69;5104736;28;20192;-74
2022/05/05 22:35:16;;;;;;;3.92;3.63;;;;;;;11.32;100.00;63165.75;5094713;28;20239;-74
2022/05/05 22:37:43;;;;;;;4.43;3.63;;;;;;;11.35;100.00;63170.88;5084293;28;20213;-74
2022/05/05 22:42:56;;;;;;;3.78;3.58;;;;;;;11.25;100.00;63161.03;5083929;28;20223;-74
2022/05/05 22:45:24;;;;;;;3.78;3.45;;;;;;;11.16;100.00;63149.19;5083364;28;20224;-74
2022/05/05 22:47:51;;;;;;;3.50;3.30;;;;;;;11.27;100.00;63154.94;5089786;28;20224;-75
2022/05/05 22:50:26;;;;;;;3.30;3.05;;;;;;;11.26;100.00;63159.00;5093728;28;20219;-75
2022/05/05 22:52:54;;;;;;;3.22;3.03;;;;;;;11.25;100.00;63158.50;5096243;28;20444;-74
2022/05/05 22:55:22;;;;;;;4.78;4.00;;;;;;;11.23;100.00;63150.81;5082916;28;20217;-74
2022/05/05 22:57:49;;;;;;;3.40;3.28;;;;;;;11.22;100.00;63154.88;5085969;28;20196;-75
2022/05/05 23:00:16;;;;;;;3.75;3.50;;;;;;;11.32;100.00;63162.69;5083945;28;20725;-73
2022/05/05 23:02:45;;;;;;;3.72;3.20;;;;;;;11.29;100.00;63162.13;5083066;28;20228;-74
2022/05/05 23:05:12;;;;;;;3.80;3.60;;;;;;;11.28;100.00;63164.16;5085305;28;20223;-74
2022/05/05 23:07:39;;;;;;;5.03;4.40;;;;;;;11.31;100.00;63166.75;5084724;28;20234;-74
2022/05/05 23:10:06;;;;;;;3.50;3.30;;;;;;;11.34;100.00;63169.84;5083388;28;20212;-73
2022/05/05 23:12:33;;;;;;;4.95;3.78;;;;;;;11.34;100.00;63170.38;5083353;28;20389;-73
2022/05/05 23:15:00;;;;;;;4.55;3.85;;;;;;;11.33;100.00;63171.88;5084770;28;20225;-74
2022/05/05 23:17:27;;;;;;;3.92;3.65;;;;;;;11.28;100.00;63164.16;5104743;28;20495;-73
2022/05/05 23:19:55;;;;;;;4.57;3.83;;;;;;;11.29;100.00;63162.63;5104271;28;20235;-73
2022/05/05 23:22:22;;;;;;;5.72;4.28;;;;;;;11.28;100.00;63164.16;5090817;28;20196;-74
2022/05/05 23:24:49;;;;;;;4.15;3.58;;;;;;;11.31;100.00;63166.75;5094808;28;20227;-73
2022/05/05 23:27:16;;;;;;;3.88;3.53;;;;;;;11.39;100.00;63170.44;5084478;28;20303;-73
2022/05/05 23:29:43;;;;;;;6.97;3.67;;;;;;;11.32;100.00;63165.22;5086752;28;20211;-72
2022/05/05 23:32:10;;;;;;;3.88;3.58;;;;;;;11.25;100.00;63163.09;5089988;28;20199;-72
2022/05/05 23:37:20;;;;;;;3.70;3.47;;;;;;;11.01;100.00;63135.69;5064199;28;20200;-74
2022/05/05 23:39:47;;;;;;;4.60;4.20;;;;;;;10.98;100.00;63130.53;5099577;28;20291;-73
2022/05/05 23:42:14;;;;;;;4.57;4.35;;;;;;;10.96;100.00;63127.97;5098244;28;20211;-73
2022/05/05 23:44:40;;;;;;;4.57;4.28;;;;;;;11.01;100.00;63133.63;5091859;28;20403;-72
2022/05/05 23:47:08;;;;;;;3.88;3.67;;;;;;;11.03;100.00;63135.19;5098123;28;20235;-74
2022/05/05 23:49:35;;;;;;;4.00;3.78;;;;;;;10.98;100.00;63130.53;5083080;28;20302;-73
2022/05/05 23:52:02;;;;;;;4.50;4.20;;;;;;;11.04;100.00;63138.78;5080697;28;20434;-74
2022/05/05 23:54:31;;;;;;;4.28;3.90;;;;;;;10.95;100.00;63127.44;5088611;28;20274;-73
2022/05/05 23:56:58;;;;;;;3.55;3.35;;;;;;;10.96;100.00;63125.41;5103678;28;20367;-74
2022/05/05 23:59:25;;;;;;;3.47;3.28;;;;;;;10.89;100.00;63128.84;5099594;28;20220;-74
